Flugplatz Lichtenfels (EDQL)

Hier findest Du alle Informationen zum Flugplatz Lichtenfels (EDQL).

Informationen für Piloten zum Flugplatz Lichtenfels

Hier findest Du alle relevanten Informationen, die Du als Pilot benötigst, um Lichtenfels anzufliegen.

Flugplatz: Lichtenfels ICAO-Code: EDQL
Frequenz Turm: 123,000 Mhz GAFOR Gebiet: 56
Frequenz Ground: 123,000 Mhz Mogas: nein
Platzrunde: NW 1800 ft Landegebühr: -
Platzhöhe: - Sunrise: 03:53 Uhr UTC
Pisten: 04/22 - 700 m x 30 m, GRAS Sunset: 18:49 Uhr UTC

Mitglieder, die in Lichtenfels fliegen

Flugwetter am Flugplatz Lichtenfels

Die METAR Information stammen aus EDQD (45.91 km entfernt).

METAR Code:
2007/07/01 15:50
EDQD 011550Z 01011KT CAVOK 23/15 Q1012

Temperatur: 26,9 °C Niederschlag: - Wind: 0,9 kt (max.: 1,7 kt in Böen)
Temperatur (min.): 26,3 °C Luftdruck: 1022 hPa Windrichtung: 225 °
Temperatur (max.): 27,3 °C Luftfeuchtigkeit: 31 % Bewölkung: 1/8

Flugschulen am Flugplatz Lichtenfels

Am Flugplatz Lichtenfels gibt es leider keine Flugschule.

Benachbarte Flugplätze und Flugschulen

Es gibt 12 weitere Flugplätze in einem Umkreis von 50 km um den Flugplatz Lichtenfels.

Jetzt anmelden

Passwort vergessen

Umfrage Archiv

Sendet Ihr ADS-B und/oder FLARM?

Ja
83.2 %
Nein
16.8 %
Stimmen: 197 | Diskussion
Anzeige: Roland Aircraft
Statistik Alle Mitglieder

Aktuell sind 43 Besucher online, davon 2 Mitglieder und 41 Gäste.


Mitglieder online:
Heli  Munber2002 

Anzeige: ULPower Aero Engines Anzeige: Pocket FMS